PRIVATE WETTERSTATION BILLIGHEIM-ALLFELD                       ZURCK
Wetterdaten: Sonntag, 14.02.2016
Datum Zeit Temp. A. Temp. A. min Temp. A. max Feuchte A. Luftdruck Regen Wind Richtung Richtung Sonnenschein ET Solar Taupunkt Windchill Windben Empfang
14.02.2016 00:00 4,8 C 4,8 C 4,9 C 91 % 984,2 hPa 0,2 l/m 11,3 km/h (2 Bft) S-SO 157 0 min 0,000 mm 0 W/m 3,5 C 1,0 C 24,1 km/h (4 Bft) 99 %
14.02.2016 00:10 4,8 C 4,8 C 4,8 C 91 % 984,3 hPa 0,2 l/m 12,9 km/h (3 Bft) S-SO 157 0 min 0,000 mm 0 W/m 3,5 C -0,0 C 25,7 km/h (4 Bft) 100 %
14.02.2016 00:20 4,9 C 4,8 C 4,9 C 92 % 984,3 hPa 0,2 l/m 12,9 km/h (3 Bft) S-SO 157 0 min 0,000 mm 0 W/m 3,7 C 0,1 C 22,5 km/h (4 Bft) 100 %
14.02.2016 00:30 4,9 C 4,8 C 4,9 C 92 % 984,5 hPa 0,4 l/m 11,3 km/h (2 Bft) S-SO 157 0 min 0,000 mm 0 W/m 3,7 C 1,1 C 25,7 km/h (4 Bft) 100 %
14.02.2016 00:40 4,9 C 4,9 C 4,9 C 92 % 984,5 hPa 0,4 l/m 12,9 km/h (3 Bft) S 180 0 min 0,000 mm 0 W/m 3,7 C 0,1 C 29,0 km/h (5 Bft) 100 %
14.02.2016 00:50 5,0 C 4,9 C 5,0 C 92 % 984,6 hPa 0,2 l/m 14,5 km/h (3 Bft) S-SO 157 0 min 0,000 mm 0 W/m 3,8 C -0,7 C 35,4 km/h (5 Bft) 90 %
14.02.2016 01:00 5,0 C 4,9 C 5,1 C 92 % 984,6 hPa 0,2 l/m 14,5 km/h (3 Bft) S-SO 157 0 min 0,000 mm 0 W/m 3,8 C -0,7 C 25,7 km/h (4 Bft) 100 %
14.02.2016 01:10 5,1 C 5,0 C 5,1 C 92 % 984,6 hPa 0,4 l/m 11,3 km/h (2 Bft) S-SO 157 0 min 0,000 mm 0 W/m 3,9 C 1,3 C 30,6 km/h (5 Bft) 100 %
14.02.2016 01:20 5,1 C 5,1 C 5,1 C 91 % 984,6 hPa 0,0 l/m 11,3 km/h (2 Bft) S 180 0 min 0,000 mm 0 W/m 3,8 C 1,3 C 27,4 km/h (4 Bft) 100 %
14.02.2016 01:30 5,1 C 5,1 C 5,1 C 92 % 984,5 hPa 0,0 l/m 9,7 km/h (2 Bft) S 180 0 min 0,000 mm 0 W/m 3,9 C 2,4 C 20,9 km/h (4 Bft) 100 %
14.02.2016 01:40 5,1 C 5,1 C 5,1 C 92 % 984,5 hPa 0,2 l/m 9,7 km/h (2 Bft) S 180 0 min 0,000 mm 0 W/m 3,9 C 2,4 C 20,9 km/h (4 Bft) 100 %
14.02.2016 01:50 5,1 C 5,1 C 5,1 C 92 % 984,5 hPa 0,2 l/m 6,4 km/h (2 Bft) S 180 0 min 0,000 mm 0 W/m 3,9 C 5,1 C 16,1 km/h (3 Bft) 100 %
14.02.2016 02:00 5,2 C 5,1 C 5,2 C 92 % 984,6 hPa 0,0 l/m 9,7 km/h (2 Bft) S 180 0 min 0,000 mm 0 W/m 4,0 C 2,5 C 19,3 km/h (3 Bft) 100 %
14.02.2016 02:10 5,2 C 5,2 C 5,2 C 92 % 984,7 hPa 0,4 l/m 9,7 km/h (2 Bft) S 180 0 min 0,000 mm 0 W/m 4,0 C 2,5 C 19,3 km/h (3 Bft) 100 %
14.02.2016 02:20 5,2 C 5,2 C 5,2 C 92 % 984,9 hPa 0,0 l/m 12,9 km/h (3 Bft) S-SW 202 0 min 0,000 mm 0 W/m 4,0 C 0,5 C 30,6 km/h (5 Bft) 100 %
14.02.2016 02:30 5,4 C 5,2 C 5,4 C 92 % 985,0 hPa 0,0 l/m 17,7 km/h (3 Bft) S-SW 202 0 min 0,000 mm 0 W/m 4,2 C -1,7 C 33,8 km/h (5 Bft) 100 %
14.02.2016 02:40 5,6 C 5,4 C 5,6 C 92 % 985,0 hPa 0,0 l/m 20,9 km/h (4 Bft) S-SW 202 0 min 0,000 mm 0 W/m 4,4 C -2,7 C 43,5 km/h (6 Bft) 99 %
14.02.2016 02:50 5,7 C 5,6 C 5,7 C 92 % 985,1 hPa 0,0 l/m 19,3 km/h (3 Bft) SW 225 0 min 0,000 mm 0 W/m 4,5 C -2,0 C 37,0 km/h (5 Bft) 100 %
14.02.2016 03:00 5,7 C 5,7 C 5,7 C 92 % 985,1 hPa 0,0 l/m 17,7 km/h (3 Bft) SW 225 0 min 0,025 mm 0 W/m 4,5 C -1,3 C 40,2 km/h (6 Bft) 90 %
14.02.2016 03:10 5,7 C 5,7 C 5,7 C 92 % 985,1 hPa 0,0 l/m 19,3 km/h (3 Bft) S-SW 202 0 min 0,000 mm 0 W/m 4,5 C -2,0 C 33,8 km/h (5 Bft) 99 %
14.02.2016 03:20 5,8 C 5,7 C 5,8 C 92 % 985,3 hPa 0,0 l/m 17,7 km/h (3 Bft) S-SW 202 0 min 0,000 mm 0 W/m 4,6 C -1,2 C 30,6 km/h (5 Bft) 100 %
14.02.2016 03:30 5,8 C 5,8 C 5,8 C 92 % 985,3 hPa 0,0 l/m 17,7 km/h (3 Bft) S-SW 202 0 min 0,000 mm 0 W/m 4,6 C -1,2 C 29,0 km/h (5 Bft) 100 %
14.02.2016 03:40 5,8 C 5,8 C 5,8 C 92 % 985,4 hPa 0,0 l/m 16,1 km/h (3 Bft) S-SW 202 0 min 0,000 mm 0 W/m 4,6 C -0,5 C 33,8 km/h (5 Bft) 100 %
14.02.2016 03:50 5,9 C 5,8 C 5,9 C 91 % 985,4 hPa 0,0 l/m 16,1 km/h (3 Bft) S-SW 202 0 min 0,000 mm 0 W/m 4,5 C -0,4 C 29,0 km/h (5 Bft) 100 %
14.02.2016 04:00 5,8 C 5,8 C 5,9 C 92 % 985,2 hPa 0,2 l/m 12,9 km/h (3 Bft) S-SW 202 0 min 0,025 mm 0 W/m 4,6 C 1,2 C 27,4 km/h (4 Bft) 100 %
14.02.2016 04:10 5,8 C 5,8 C 5,8 C 92 % 985,5 hPa 0,0 l/m 12,9 km/h (3 Bft) S-SW 202 0 min 0,000 mm 0 W/m 4,6 C 1,2 C 25,7 km/h (4 Bft) 100 %
14.02.2016 04:20 5,8 C 5,8 C 5,8 C 91 % 985,6 hPa 0,0 l/m 17,7 km/h (3 Bft) S-SW 202 0 min 0,000 mm 0 W/m 4,4 C -1,2 C 32,2 km/h (5 Bft) 100 %
14.02.2016 04:30 5,9 C 5,8 C 5,9 C 91 % 985,7 hPa 0,0 l/m 16,1 km/h (3 Bft) S-SW 202 0 min 0,000 mm 0 W/m 4,5 C -0,4 C 29,0 km/h (5 Bft) 100 %
14.02.2016 04:40 5,9 C 5,8 C 5,9 C 90 % 985,9 hPa 0,0 l/m 17,7 km/h (3 Bft) S-SW 202 0 min 0,000 mm 0 W/m 4,4 C -1,1 C 32,2 km/h (5 Bft) 99 %
14.02.2016 04:50 5,9 C 5,9 C 5,9 C 90 % 986,0 hPa 0,0 l/m 17,7 km/h (3 Bft) S-SW 202 0 min 0,000 mm 0 W/m 4,4 C -1,1 C 25,7 km/h (4 Bft) 100 %
14.02.2016 05:00 6,0 C 5,9 C 6,0 C 89 % 986,1 hPa 0,0 l/m 16,1 km/h (3 Bft) SW 225 0 min 0,025 mm 0 W/m 4,3 C -0,2 C 32,2 km/h (5 Bft) 100 %
14.02.2016 05:10 5,9 C 5,9 C 6,0 C 90 % 986,0 hPa 0,0 l/m 14,5 km/h (3 Bft) SW 225 0 min 0,000 mm 0 W/m 4,4 C 0,4 C 25,7 km/h (4 Bft) 88 %
14.02.2016 05:20 5,9 C 5,9 C 5,9 C 89 % 986,1 hPa 0,0 l/m 14,5 km/h (3 Bft) S-SW 202 0 min 0,000 mm 0 W/m 4,2 C 0,4 C 29,0 km/h (5 Bft) 100 %
14.02.2016 05:30 6,0 C 5,9 C 6,0 C 88 % 986,2 hPa 0,0 l/m 16,1 km/h (3 Bft) S-SW 202 0 min 0,000 mm 0 W/m 4,2 C -0,2 C 29,0 km/h (5 Bft) 100 %
14.02.2016 05:40 6,1 C 6,0 C 6,1 C 87 % 986,2 hPa 0,0 l/m 16,1 km/h (3 Bft) S-SW 202 0 min 0,000 mm 0 W/m 4,1 C -0,1 C 33,8 km/h (5 Bft) 100 %
14.02.2016 05:50 6,1 C 6,0 C 6,1 C 87 % 986,3 hPa 0,0 l/m 16,1 km/h (3 Bft) SW 225 0 min 0,000 mm 0 W/m 4,1 C -0,1 C 25,7 km/h (4 Bft) 100 %
14.02.2016 06:00 6,0 C 6,0 C 6,1 C 87 % 986,3 hPa 0,0 l/m 16,1 km/h (3 Bft) S-SW 202 0 min 0,025 mm 0 W/m 4,0 C -0,2 C 32,2 km/h (5 Bft) 100 %
14.02.2016 06:10 6,0 C 5,9 C 6,0 C 86 % 986,4 hPa 0,0 l/m 16,1 km/h (3 Bft) S-SW 202 0 min 0,000 mm 0 W/m 3,8 C -0,2 C 27,4 km/h (4 Bft) 100 %
14.02.2016 06:20 5,9 C 5,9 C 6,0 C 86 % 986,5 hPa 0,0 l/m 16,1 km/h (3 Bft) S-SW 202 0 min 0,000 mm 0 W/m 3,7 C -0,4 C 29,0 km/h (5 Bft) 100 %
14.02.2016 06:30 5,9 C 5,9 C 5,9 C 86 % 986,5 hPa 0,0 l/m 16,1 km/h (3 Bft) S-SW 202 0 min 0,000 mm 0 W/m 3,7 C -0,4 C 29,0 km/h (5 Bft) 99 %
14.02.2016 06:40 5,9 C 5,9 C 6,0 C 86 % 986,1 hPa 0,0 l/m 12,9 km/h (3 Bft) SW 225 0 min 0,000 mm 0 W/m 3,7 C 1,3 C 29,0 km/h (5 Bft) 100 %
14.02.2016 06:50 5,9 C 5,9 C 5,9 C 86 % 986,3 hPa 0,0 l/m 12,9 km/h (3 Bft) SW 225 0 min 0,000 mm 0 W/m 3,7 C 1,3 C 24,1 km/h (4 Bft) 100 %
14.02.2016 07:00 5,9 C 5,9 C 5,9 C 86 % 986,3 hPa 0,0 l/m 12,9 km/h (3 Bft) SW 225 0 min 0,025 mm 0 W/m 3,7 C 1,3 C 25,7 km/h (4 Bft) 100 %
14.02.2016 07:10 5,9 C 5,8 C 5,9 C 86 % 986,4 hPa 0,0 l/m 16,1 km/h (3 Bft) S-SW 202 0 min 0,000 mm 0 W/m 3,7 C -0,4 C 35,4 km/h (5 Bft) 100 %
14.02.2016 07:20 5,8 C 5,8 C 5,9 C 86 % 986,4 hPa 0,0 l/m 16,1 km/h (3 Bft) SW 225 0 min 0,000 mm 0 W/m 3,6 C -0,5 C 32,2 km/h (5 Bft) 100 %
14.02.2016 07:30 5,8 C 5,8 C 5,9 C 86 % 986,4 hPa 0,0 l/m 14,5 km/h (3 Bft) SW 225 0 min 0,000 mm 0 W/m 3,6 C 0,3 C 24,1 km/h (4 Bft) 89 %
14.02.2016 07:40 5,8 C 5,8 C 5,8 C 86 % 986,6 hPa 0,0 l/m 11,3 km/h (2 Bft) SW 225 0 min 0,000 mm 0 W/m 3,6 C 2,1 C 24,1 km/h (4 Bft) 100 %
14.02.2016 07:50 5,7 C 5,7 C 5,8 C 87 % 986,7 hPa 0,0 l/m 12,9 km/h (3 Bft) SW 225 0 min 0,000 mm 0 W/m 3,7 C 1,0 C 25,7 km/h (4 Bft) 100 %
14.02.2016 08:00 5,7 C 5,7 C 5,7 C 87 % 986,8 hPa 0,0 l/m 11,3 km/h (2 Bft) S-SW 202 0 min 0,025 mm 7 W/m 3,7 C 2,0 C 24,1 km/h (4 Bft) 99 %
14.02.2016 08:10 5,7 C 5,7 C 5,7 C 88 % 986,8 hPa 0,0 l/m 12,9 km/h (3 Bft) S-SW 202 0 min 0,000 mm 19 W/m 3,9 C 1,0 C 20,9 km/h (4 Bft) 100 %
14.02.2016 08:20 5,7 C 5,7 C 5,7 C 88 % 986,9 hPa 0,0 l/m 11,3 km/h (2 Bft) S-SW 202 0 min 0,000 mm 51 W/m 3,9 C 2,0 C 19,3 km/h (3 Bft) 100 %
14.02.2016 08:30 5,7 C 5,7 C 5,7 C 89 % 986,8 hPa 0,0 l/m 11,3 km/h (2 Bft) S-SW 202 0 min 0,000 mm 56 W/m 4,0 C 2,0 C 20,9 km/h (4 Bft) 100 %
14.02.2016 08:40 5,7 C 5,7 C 5,7 C 89 % 986,8 hPa 0,0 l/m 11,3 km/h (2 Bft) S-SW 202 0 min 0,000 mm 35 W/m 4,0 C 2,0 C 19,3 km/h (3 Bft) 100 %
14.02.2016 08:50 5,8 C 5,7 C 5,8 C 89 % 986,8 hPa 0,0 l/m 11,3 km/h (2 Bft) S-SW 202 0 min 0,000 mm 44 W/m 4,1 C 2,1 C 19,3 km/h (3 Bft) 100 %
14.02.2016 09:00 5,7 C 5,7 C 5,8 C 89 % 986,9 hPa 0,0 l/m 11,3 km/h (2 Bft) S-SW 202 0 min 0,025 mm 49 W/m 4,0 C 2,0 C 20,9 km/h (4 Bft) 100 %
14.02.2016 09:10 5,7 C 5,7 C 5,7 C 89 % 987,0 hPa 0,0 l/m 11,3 km/h (2 Bft) S-SW 202 0 min 0,000 mm 63 W/m 4,0 C 2,0 C 17,7 km/h (3 Bft) 100 %
14.02.2016 09:20 5,8 C 5,7 C 5,8 C 89 % 987,0 hPa 0,0 l/m 12,9 km/h (3 Bft) S-SW 202 0 min 0,000 mm 62 W/m 4,1 C 1,2 C 22,5 km/h (4 Bft) 100 %
14.02.2016 09:30 5,8 C 5,8 C 5,8 C 89 % 986,8 hPa 0,0 l/m 8,0 km/h (2 Bft) SW 225 0 min 0,000 mm 91 W/m 4,1 C 4,4 C 19,3 km/h (3 Bft) 100 %
14.02.2016 09:40 5,8 C 5,8 C 5,8 C 89 % 986,8 hPa 0,0 l/m 6,4 km/h (2 Bft) SW 225 0 min 0,000 mm 83 W/m 4,1 C 5,8 C 16,1 km/h (3 Bft) 100 %
14.02.2016 09:50 6,2 C 5,8 C 6,2 C 90 % 986,8 hPa 0,0 l/m 8,0 km/h (2 Bft) SW 225 10 min 0,000 mm 267 W/m 4,7 C 4,9 C 16,1 km/h (3 Bft) 100 %
14.02.2016 10:00 6,9 C 6,2 C 6,9 C 87 % 986,6 hPa 0,0 l/m 8,0 km/h (2 Bft) W-SW 247 10 min 0,051 mm 269 W/m 4,9 C 5,6 C 20,9 km/h (4 Bft) 100 %
14.02.2016 10:10 7,0 C 6,9 C 7,0 C 85 % 986,8 hPa 0,0 l/m 12,9 km/h (3 Bft) SW 225 10 min 0,000 mm 276 W/m 4,7 C 2,6 C 27,4 km/h (4 Bft) 100 %
14.02.2016 10:20 7,5 C 7,0 C 7,5 C 85 % 986,9 hPa 0,0 l/m 11,3 km/h (2 Bft) SW 225 10 min 0,000 mm 369 W/m 5,1 C 4,0 C 20,9 km/h (4 Bft) 99 %
14.02.2016 10:30 7,8 C 7,5 C 7,8 C 82 % 987,0 hPa 0,0 l/m 9,7 km/h (2 Bft) SW 225 10 min 0,000 mm 357 W/m 4,9 C 5,4 C 25,7 km/h (4 Bft) 100 %
14.02.2016 10:40 7,5 C 7,5 C 7,8 C 82 % 987,1 hPa 0,0 l/m 11,3 km/h (2 Bft) SW 225 10 min 0,000 mm 220 W/m 4,6 C 4,0 C 22,5 km/h (4 Bft) 100 %
14.02.2016 10:50 7,2 C 7,2 C 7,5 C 82 % 987,2 hPa 0,0 l/m 8,0 km/h (2 Bft) SW 225 0 min 0,000 mm 132 W/m 4,3 C 5,9 C 20,9 km/h (4 Bft) 100 %
14.02.2016 11:00 6,9 C 6,9 C 7,2 C 82 % 987,3 hPa 0,0 l/m 9,7 km/h (2 Bft) SW 225 0 min 0,102 mm 146 W/m 4,0 C 4,4 C 24,1 km/h (4 Bft) 100 %
14.02.2016 11:10 6,9 C 6,9 C 6,9 C 83 % 987,6 hPa 0,0 l/m 6,4 km/h (2 Bft) SW 225 0 min 0,000 mm 134 W/m 4,2 C 6,9 C 17,7 km/h (3 Bft) 100 %
14.02.2016 11:20 6,9 C 6,9 C 6,9 C 82 % 987,8 hPa 0,0 l/m 6,4 km/h (2 Bft) SW 225 0 min 0,000 mm 111 W/m 4,0 C 6,9 C 16,1 km/h (3 Bft) 100 %
14.02.2016 11:30 6,8 C 6,8 C 6,9 C 82 % 987,8 hPa 0,0 l/m 8,0 km/h (2 Bft) SW 225 0 min 0,000 mm 86 W/m 3,9 C 5,5 C 22,5 km/h (4 Bft) 100 %
14.02.2016 11:40 6,7 C 6,6 C 6,8 C 82 % 987,9 hPa 0,0 l/m 8,0 km/h (2 Bft) SW 225 0 min 0,000 mm 53 W/m 3,8 C 5,4 C 20,9 km/h (4 Bft) 100 %
14.02.2016 11:50 6,6 C 6,6 C 6,7 C 82 % 988,1 hPa 0,0 l/m 8,0 km/h (2 Bft) SW 225 0 min 0,000 mm 54 W/m 3,8 C 5,3 C 27,4 km/h (4 Bft) 99 %
14.02.2016 12:00 6,5 C 6,5 C 6,6 C 82 % 988,2 hPa 0,0 l/m 6,4 km/h (2 Bft) SW 225 0 min 0,051 mm 47 W/m 3,7 C 6,5 C 19,3 km/h (3 Bft) 100 %
14.02.2016 12:10 6,4 C 6,4 C 6,5 C 81 % 988,2 hPa 0,0 l/m 9,7 km/h (2 Bft) W-SW 247 0 min 0,000 mm 91 W/m 3,4 C 3,8 C 20,9 km/h (4 Bft) 100 %
14.02.2016 12:20 6,4 C 6,4 C 6,4 C 82 % 988,3 hPa 0,0 l/m 8,0 km/h (2 Bft) SW 225 0 min 0,000 mm 118 W/m 3,6 C 5,1 C 19,3 km/h (3 Bft) 100 %
14.02.2016 12:30 6,5 C 6,4 C 6,5 C 82 % 988,4 hPa 0,0 l/m 4,8 km/h (1 Bft) SW 225 0 min 0,000 mm 151 W/m 3,7 C 6,5 C 17,7 km/h (3 Bft) 89 %
14.02.2016 12:40 6,5 C 6,5 C 6,6 C 81 % 988,4 hPa 0,0 l/m 6,4 km/h (2 Bft) W-SW 247 0 min 0,000 mm 81 W/m 3,5 C 6,5 C 17,7 km/h (3 Bft) 100 %
14.02.2016 13:00 6,5 C 6,4 C 6,6 C 81 % 988,5 hPa 0,0 l/m 5,2 km/h (1 Bft) W-SW 240 0 min 0,053 mm 125 W/m 3,5 C 6,5 C 19,3 km/h (3 Bft) 100 %
14.02.2016 13:10 6,6 C 6,5 C 6,6 C 80 % 988,6 hPa 0,0 l/m 6,8 km/h (2 Bft) W 266 10 min 0,000 mm 158 W/m 3,4 C 6,3 C 20,9 km/h (4 Bft) 100 %
14.02.2016 13:20 6,8 C 6,6 C 6,8 C 81 % 988,7 hPa 0,0 l/m 1,3 km/h (1 Bft) S-SW 200 0 min 0,000 mm 118 W/m 3,8 C 6,8 C 9,7 km/h (2 Bft) 100 %
14.02.2016 13:30 6,8 C 6,8 C 6,8 C 79 % 988,7 hPa 0,0 l/m 7,5 km/h (2 Bft) W 261 0 min 0,000 mm 77 W/m 3,4 C 5,9 C 20,9 km/h (4 Bft) 100 %
14.02.2016 13:40 6,7 C 6,7 C 6,8 C 79 % 988,8 hPa 0,0 l/m 10,9 km/h (2 Bft) W-NW 299 0 min 0,000 mm 69 W/m 3,3 C 3,4 C 22,5 km/h (4 Bft) 100 %
14.02.2016 13:50 6,4 C 6,4 C 6,7 C 79 % 988,9 hPa 0,0 l/m 9,6 km/h (2 Bft) W 261 0 min 0,000 mm 54 W/m 3,0 C 3,9 C 19,3 km/h (3 Bft) 100 %
14.02.2016 14:00 6,3 C 6,3 C 6,4 C 79 % 989,0 hPa 0,0 l/m 8,9 km/h (2 Bft) SW 235 0 min 0,000 mm 83 W/m 2,9 C 4,3 C 22,5 km/h (4 Bft) 100 %
14.02.2016 14:10 6,3 C 6,3 C 6,3 C 79 % 989,2 hPa 0,0 l/m 7,6 km/h (2 Bft) W 265 0 min 0,051 mm 114 W/m 2,9 C 5,3 C 20,9 km/h (4 Bft) 91 %
14.02.2016 14:20 6,3 C 6,3 C 6,4 C 79 % 989,3 hPa 0,0 l/m 7,3 km/h (2 Bft) W-SW 240 0 min 0,000 mm 69 W/m 2,9 C 5,5 C 25,7 km/h (4 Bft) 100 %
14.02.2016 14:30 6,4 C 6,3 C 6,4 C 80 % 989,2 hPa 0,0 l/m 8,7 km/h (2 Bft) W-SW 258 0 min 0,000 mm 104 W/m 3,2 C 4,5 C 24,1 km/h (4 Bft) 100 %
14.02.2016 14:40 6,4 C 6,4 C 6,4 C 77 % 989,4 hPa 0,0 l/m 10,6 km/h (2 Bft) S-SW 211 0 min 0,000 mm 77 W/m 2,7 C 3,2 C 24,1 km/h (4 Bft) 100 %
14.02.2016 14:50 6,4 C 6,4 C 6,4 C 79 % 989,6 hPa 0,0 l/m 7,1 km/h (2 Bft) W-SW 257 0 min 0,000 mm 63 W/m 3,0 C 5,8 C 17,7 km/h (3 Bft) 100 %
14.02.2016 15:00 6,4 C 6,4 C 6,4 C 78 % 989,8 hPa 0,0 l/m 11,2 km/h (2 Bft) SW 232 0 min 0,050 mm 65 W/m 2,8 C 2,8 C 25,7 km/h (4 Bft) 100 %
14.02.2016 15:10 6,3 C 6,3 C 6,4 C 77 % 990,0 hPa 0,0 l/m 12,1 km/h (2 Bft) W-SW 242 0 min 0,000 mm 83 W/m 2,6 C 2,2 C 24,1 km/h (4 Bft) 100 %
14.02.2016 15:20 6,3 C 6,3 C 6,3 C 77 % 990,1 hPa 0,0 l/m 12,0 km/h (2 Bft) W-SW 243 0 min 0,000 mm 67 W/m 2,6 C 2,3 C 27,4 km/h (4 Bft) 100 %
14.02.2016 15:30 6,3 C 6,3 C 6,3 C 77 % 990,2 hPa 0,0 l/m 8,0 km/h (2 Bft) SW 220 0 min 0,000 mm 51 W/m 2,6 C 5,0 C 19,3 km/h (3 Bft) 100 %
14.02.2016 15:40 6,3 C 6,3 C 6,3 C 76 % 990,5 hPa 0,0 l/m 10,0 km/h (2 Bft) W-SW 252 0 min 0,000 mm 47 W/m 2,4 C 3,5 C 22,5 km/h (4 Bft) 100 %
14.02.2016 15:50 6,3 C 6,3 C 6,3 C 76 % 990,6 hPa 0,0 l/m 8,7 km/h (2 Bft) W 262 0 min 0,000 mm 67 W/m 2,4 C 4,4 C 30,6 km/h (5 Bft) 100 %
14.02.2016 16:00 6,3 C 6,3 C 6,3 C 77 % 990,7 hPa 0,0 l/m 7,2 km/h (2 Bft) W-SW 258 0 min 0,051 mm 56 W/m 2,6 C 5,6 C 17,7 km/h (3 Bft) 100 %
14.02.2016 16:10 6,3 C 6,3 C 6,3 C 76 % 990,8 hPa 0,0 l/m 6,7 km/h (2 Bft) W-SW 252 0 min 0,000 mm 40 W/m 2,4 C 6,1 C 20,9 km/h (4 Bft) 99 %
14.02.2016 16:20 6,2 C 6,2 C 6,3 C 77 % 991,1 hPa 0,0 l/m 6,7 km/h (2 Bft) W 271 0 min 0,000 mm 14 W/m 2,5 C 6,0 C 19,3 km/h (3 Bft) 100 %
14.02.2016 16:30 6,2 C 6,2 C 6,3 C 77 % 991,3 hPa 0,0 l/m 3,2 km/h (1 Bft) W-SW 254 0 min 0,000 mm 11 W/m 2,5 C 6,2 C 16,1 km/h (3 Bft) 91 %
14.02.2016 16:40 6,1 C 6,1 C 6,2 C 78 % 991,4 hPa 0,0 l/m 3,1 km/h (1 Bft) W 275 0 min 0,000 mm 0 W/m 2,6 C 6,1 C 11,3 km/h (2 Bft) 100 %
14.02.2016 16:50 6,1 C 6,1 C 6,1 C 78 % 991,8 hPa 0,0 l/m 7,6 km/h (2 Bft) W-NW 286 0 min 0,000 mm 0 W/m 2,6 C 5,1 C 19,3 km/h (3 Bft) 100 %
14.02.2016 17:00 5,9 C 5,9 C 6,1 C 79 % 991,9 hPa 0,0 l/m 5,2 km/h (1 Bft) W-SW 257 0 min 0,026 mm 0 W/m 2,5 C 5,9 C 12,9 km/h (3 Bft) 100 %
14.02.2016 17:10 5,8 C 5,8 C 5,9 C 79 % 992,0 hPa 0,0 l/m 4,5 km/h (1 Bft) W 268 0 min 0,000 mm 0 W/m 2,4 C 5,8 C 19,3 km/h (3 Bft) 100 %
14.02.2016 17:20 5,7 C 5,7 C 5,8 C 79 % 992,1 hPa 0,0 l/m 5,4 km/h (1 Bft) W-NW 295 0 min 0,000 mm 5 W/m 2,3 C 5,7 C 17,7 km/h (3 Bft) 100 %
14.02.2016 17:30 5,7 C 5,7 C 5,7 C 79 % 992,2 hPa 0,0 l/m 2,6 km/h (1 Bft) W 279 0 min 0,000 mm 5 W/m 2,3 C 5,7 C 11,3 km/h (2 Bft) 91 %
14.02.2016 17:40 5,6 C 5,6 C 5,7 C 79 % 992,5 hPa 0,0 l/m 2,6 km/h (1 Bft) W 263 0 min 0,000 mm 0 W/m 2,3 C 5,6 C 14,5 km/h (3 Bft) 100 %
14.02.2016 17:50 5,6 C 5,6 C 5,6 C 80 % 992,7 hPa 0,0 l/m 0,5 km/h (0 Bft) W 263 0 min 0,000 mm 0 W/m 2,4 C 5,6 C 8,0 km/h (2 Bft) 100 %
14.02.2016 18:00 5,5 C 5,5 C 5,6 C 80 % 992,9 hPa 0,0 l/m 0,9 km/h (0 Bft) W-SW 247 0 min 0,000 mm 0 W/m 2,3 C 5,5 C 8,0 km/h (2 Bft) 100 %
14.02.2016 18:10 5,4 C 5,4 C 5,5 C 81 % 993,1 hPa 0,0 l/m 0,1 km/h (0 Bft) W-SW 247 0 min 0,000 mm 0 W/m 2,4 C 5,4 C 4,8 km/h (1 Bft) 100 %
14.02.2016 18:20 5,3 C 5,3 C 5,4 C 80 % 993,3 hPa 0,0 l/m 0,1 km/h (0 Bft) W-SW 247 0 min 0,000 mm 0 W/m 2,1 C 5,3 C 3,2 km/h (1 Bft) 99 %
14.02.2016 18:30 5,3 C 5,3 C 5,3 C 81 % 993,5 hPa 0,0 l/m 0,0 km/h (0 Bft) W-SW 247 0 min 0,000 mm 0 W/m 2,3 C 5,3 C 0,0 km/h (0 Bft) 100 %
14.02.2016 18:40 5,3 C 5,2 C 5,3 C 81 % 993,6 hPa 0,0 l/m 0,0 km/h (0 Bft) W-SW 247 0 min 0,000 mm 0 W/m 2,3 C 5,3 C 1,6 km/h (1 Bft) 91 %
14.02.2016 18:50 5,2 C 5,2 C 5,3 C 82 % 993,8 hPa 0,0 l/m 0,2 km/h (0 Bft) W-SW 247 0 min 0,000 mm 0 W/m 2,4 C 5,2 C 6,4 km/h (2 Bft) 100 %
14.02.2016 19:00 5,2 C 5,2 C 5,2 C 82 % 993,8 hPa 0,0 l/m 0,0 km/h (0 Bft) W-SW 247 0 min 0,000 mm 0 W/m 2,4 C 5,2 C 0,0 km/h (0 Bft) 100 %
14.02.2016 19:10 5,1 C 5,1 C 5,2 C 84 % 994,0 hPa 0,0 l/m 0,3 km/h (0 Bft) W-SW 247 0 min 0,000 mm 0 W/m 2,6 C 5,1 C 4,8 km/h (1 Bft) 99 %
14.02.2016 19:20 4,9 C 4,9 C 5,1 C 84 % 994,1 hPa 0,0 l/m 2,8 km/h (1 Bft) SW 222 0 min 0,000 mm 0 W/m 2,4 C 4,9 C 8,0 km/h (2 Bft) 100 %
14.02.2016 19:30 4,8 C 4,8 C 4,9 C 85 % 994,2 hPa 0,0 l/m 3,6 km/h (1 Bft) SW 217 0 min 0,000 mm 0 W/m 2,5 C 4,8 C 9,7 km/h (2 Bft) 95 %
14.02.2016 19:40 4,9 C 4,8 C 4,9 C 85 % 994,3 hPa 0,0 l/m 3,8 km/h (1 Bft) S-SW 202 0 min 0,000 mm 0 W/m 2,6 C 4,9 C 9,7 km/h (2 Bft) 97 %
14.02.2016 19:50 4,9 C 4,9 C 4,9 C 85 % 994,4 hPa 0,0 l/m 3,2 km/h (1 Bft) S-SW 197 0 min 0,000 mm 0 W/m 2,6 C 4,9 C 9,7 km/h (2 Bft) 100 %
14.02.2016 20:00 4,9 C 4,9 C 5,0 C 85 % 994,5 hPa 0,0 l/m 2,4 km/h (1 Bft) S-SW 211 0 min 0,000 mm 0 W/m 2,6 C 4,9 C 8,0 km/h (2 Bft) 100 %
14.02.2016 20:10 4,9 C 4,9 C 4,9 C 85 % 994,7 hPa 0,0 l/m 0,2 km/h (0 Bft) W-SW 248 0 min 0,000 mm 0 W/m 2,6 C 4,9 C 6,4 km/h (2 Bft) 100 %
14.02.2016 20:20 4,9 C 4,9 C 4,9 C 85 % 994,9 hPa 0,0 l/m 0,5 km/h (0 Bft) W-SW 248 0 min 0,000 mm 0 W/m 2,6 C 4,9 C 6,4 km/h (2 Bft) 100 %
14.02.2016 20:30 4,9 C 4,9 C 4,9 C 85 % 995,0 hPa 0,0 l/m 0,8 km/h (0 Bft) W-SW 246 0 min 0,000 mm 0 W/m 2,6 C 4,9 C 6,4 km/h (2 Bft) 100 %
14.02.2016 20:40 4,9 C 4,9 C 4,9 C 85 % 995,2 hPa 0,0 l/m 0,2 km/h (0 Bft) W-SW 242 0 min 0,000 mm 0 W/m 2,6 C 4,9 C 6,4 km/h (2 Bft) 100 %
14.02.2016 20:50 4,8 C 4,8 C 4,9 C 86 % 995,2 hPa 0,0 l/m 0,0 km/h (0 Bft) SW 229 0 min 0,000 mm 0 W/m 2,7 C 4,8 C 1,6 km/h (1 Bft) 100 %
14.02.2016 21:00 4,7 C 4,7 C 4,8 C 86 % 995,4 hPa 0,0 l/m 1,7 km/h (1 Bft) S-SW 192 0 min 0,000 mm 0 W/m 2,6 C 4,7 C 6,4 km/h (2 Bft) 100 %
14.02.2016 21:10 4,6 C 4,6 C 4,7 C 86 % 995,5 hPa 0,0 l/m 1,6 km/h (1 Bft) S 180 0 min 0,000 mm 0 W/m 2,5 C 4,6 C 6,4 km/h (2 Bft) 98 %
14.02.2016 21:20 4,4 C 4,4 C 4,6 C 86 % 995,5 hPa 0,0 l/m 0,0 km/h (0 Bft) S 180 0 min 0,000 mm 0 W/m 2,3 C 4,4 C 1,6 km/h (1 Bft) 98 %
14.02.2016 21:30 4,3 C 4,3 C 4,5 C 86 % 995,8 hPa 0,0 l/m 0,0 km/h (0 Bft) S-SO 157 0 min 0,000 mm 0 W/m 2,2 C 4,3 C 3,2 km/h (1 Bft) 98 %
14.02.2016 21:40 4,2 C 4,2 C 4,3 C 88 % 996,0 hPa 0,0 l/m 0,0 km/h (0 Bft) S-SO 157 0 min 0,000 mm 0 W/m 2,4 C 4,2 C 6,4 km/h (2 Bft) 98 %
14.02.2016 21:50 4,1 C 4,1 C 4,2 C 88 % 996,2 hPa 0,0 l/m 4,8 km/h (1 Bft) S 180 0 min 0,000 mm 0 W/m 2,3 C 4,1 C 8,0 km/h (2 Bft) 98 %
14.02.2016 22:00 4,2 C 4,1 C 4,2 C 89 % 996,3 hPa 0,0 l/m 1,6 km/h (1 Bft) S-SW 202 0 min 0,000 mm 0 W/m 2,6 C 4,2 C 8,0 km/h (2 Bft) 97 %
14.02.2016 22:10 4,2 C 4,2 C 4,2 C 89 % 996,6 hPa 0,0 l/m 3,2 km/h (1 Bft) S 180 0 min 0,000 mm 0 W/m 2,6 C 4,2 C 8,0 km/h (2 Bft) 98 %
14.02.2016 22:20 4,3 C 4,2 C 4,3 C 89 % 996,7 hPa 0,0 l/m 3,2 km/h (1 Bft) S 180 0 min 0,000 mm 0 W/m 2,7 C 4,3 C 11,3 km/h (2 Bft) 98 %
14.02.2016 22:30 4,3 C 4,3 C 4,3 C 89 % 996,9 hPa 0,0 l/m 0,0 km/h (0 Bft) S-SO 157 0 min 0,000 mm 0 W/m 2,7 C 4,3 C 6,4 km/h (2 Bft) 98 %
14.02.2016 22:40 4,4 C 4,3 C 4,4 C 89 % 996,9 hPa 0,0 l/m 0,0 km/h (0 Bft) S-SO 157 0 min 0,000 mm 0 W/m 2,7 C 4,4 C 4,8 km/h (1 Bft) 97 %
14.02.2016 22:50 4,4 C 4,4 C 4,4 C 89 % 997,0 hPa 0,0 l/m 0,0 km/h (0 Bft) S-SO 157 0 min 0,000 mm 0 W/m 2,7 C 4,4 C 4,8 km/h (1 Bft) 97 %
14.02.2016 23:00 4,4 C 4,4 C 4,4 C 89 % 997,0 hPa 0,0 l/m 1,6 km/h (1 Bft) S-SO 157 0 min 0,000 mm 0 W/m 2,7 C 4,4 C 6,4 km/h (2 Bft) 99 %
14.02.2016 23:10 4,4 C 4,4 C 4,4 C 89 % 997,1 hPa 0,0 l/m 1,6 km/h (1 Bft) S-SO 157 0 min 0,000 mm 0 W/m 2,7 C 4,4 C 8,0 km/h (2 Bft) 99 %
14.02.2016 23:20 4,4 C 4,4 C 4,4 C 90 % 997,3 hPa 0,0 l/m 1,6 km/h (1 Bft) S-SO 157 0 min 0,000 mm 0 W/m 2,9 C 4,4 C 8,0 km/h (2 Bft) 94 %
14.02.2016 23:30 4,3 C 4,3 C 4,4 C 90 % 997,6 hPa 0,0 l/m 1,6 km/h (1 Bft) S-SW 202 0 min 0,000 mm 0 W/m 2,8 C 4,3 C 8,0 km/h (2 Bft) 95 %
14.02.2016 23:40 4,3 C 4,3 C 4,3 C 90 % 997,8 hPa 0,0 l/m 1,6 km/h (1 Bft) S-SW 202 0 min 0,000 mm 0 W/m 2,8 C 4,3 C 6,4 km/h (2 Bft) 99 %
14.02.2016 23:50 4,3 C 4,3 C 4,3 C 91 % 997,9 hPa 0,0 l/m 0,0 km/h (0 Bft) S-SW 202 0 min 0,000 mm 0 W/m 3,0 C 4,3 C 4,8 km/h (1 Bft) 100 %
_ Min-Zeit 21:50 21:50 21:50 15:40 00:00 - 18:30 - - - - - 18:20 02:40 18:30 05:10
Minimum _ 4,1 C 4,1 C 4,2 C 76 % 984,2 hPa - 0,0 km/h (0 Bft) - - - - - 2,1 C -2,7 C 0,0 km/h (0 Bft) 88 %
_ Max-Zeit 10:30 10:30 10:30 00:20 23:50 00:30 02:40 - - 09:50 11:00 10:20 10:20 11:10 02:40 00:10
Maximum _ 7,8 C 7,5 C 7,8 C 92 % 997,9 hPa 0,4 l/m 20,9 km/h
S-SW (4 Bft)
- - 10 min 0,102 mm 369 W/m 5,1 C 6,9 C 43,5 km/h
S-SW (6 Bft)
100 %
Durchschnitt _ 5,7 C 5,6 C 5,7 C 86 % 989,4 hPa #3,2 l/m 8,5 km/h (2 Bft) S-SW - #1:10 h #0,610 mm 97 W/m 3,4 C 3,2 C 19,4 km/h (3 Bft) 99 %
PRIVATE WETTERSTATION BILLIGHEIM-ALLFELD - www.neckar-odenwald-wetter.de - Holger Sonntag